KAUW/AUW METAR and TAF weather

Enter ICAO airport designator
Station Type Date Time Source
KAUW METAR 2022/12/05 12:54 UTC NOAA

KAUW 051254Z AUTO 22004KT 10SM FEW120 M02/M08 A2973 RMK AO2 SLP086 T10221083


Station Type Date Time Source
KAUW Decoded METAR 2022/12/05 12:54 UTC NOAA

WAUSAU DOWNTOWN AIRPORT, WI, United States (KAUW) 44-56N 089-37W 362M
Dec 05, 2022 - 07:54 AM EST / 2022.12.05 1254 UTC
Wind: from the SW (220 degrees) at 5 MPH (4 KT):0
Visibility: 10 mile(s):0
Sky conditions: mostly clear
Temperature: 28.0 F (-2.2 C)
Windchill: 23 F (-5 C):1
Dew Point: 17.1 F (-8.3 C)
Relative Humidity: 62%
Pressure (altimeter): 29.73 in. Hg (1006 hPa)
ob: KAUW 051254Z AUTO 22004KT 10SM FEW120 M02/M08 A2973 RMK AO2 SLP086 T10221083
cycle: 13

Station Type Date Time Source
KAUW TAF 2022/12/05 12:22 UTC NOAA

TAF KAUW 051120Z 0512/0612 26004KT P6SM OVC150
FM051600 29005KT P6SM OVC100
FM052200 32008G15KT P6SM OVC060
FM060400 35005KT P6SM BKN080
FM060800 03004KT P6SM SCT080

Example: see airport list